EW4956 Weather Reports


Display with metric or nautical units.
time (UTC)temp
F
wind
direction
speed
MPH
gust
MPH
rain 1hr
in
rain 24hr
in
rain mn
in
humidity
%
barometer
mb
20180715191036 87 164 4.0 7.0 0.00 0.00 0.00 29 1009.0
20180715185530 86 163 3.0 7.0 0.00 0.00 0.00 27 1009.2
20180715184126 86 158 5.0 10.0 0.00 0.00 0.00 29 1009.3
20180715182622 87 78 5.0 10.0 0.00 0.00 0.00 28 1009.6
20180715181019 86 58 2.0 9.0 0.00 0.01 0.00 24 1009.8
20180715175617 85 49 2.0 7.0 0.00 0.01 0.00 24 1009.8
20180715174114 85 43 2.0 7.0 0.00 0.01 0.00 25 1009.8
20180715172611 85 34 2.0 4.0 0.00 0.01 0.00 26 1009.8
20180715171038 84 33 3.0 10.0 0.00 0.01 0.00 26 1009.9
20180715165554 83 33 5.0 10.0 0.00 0.01 0.00 28 1010.0
20180715164049 83 32 2.0 9.0 0.00 0.01 0.00 31 1010.1
20180715162459 82 32 4.0 8.0 0.00 0.01 0.00 30 1010.2
20180715161043 81 32 3.0 8.0 0.00 0.01 0.00 34 1010.4
20180715155536 79 32 2.0 9.0 0.00 0.01 0.00 36 1010.4
20180715154016 78 32 4.0 10.0 0.00 0.01 0.00 38 1010.4
20180715152451 76 33 6.0 10.0 0.00 0.01 0.00 41 1010.5
20180715150946 75 33 8.0 13.0 0.00 0.01 0.00 43 1010.4
20180715145442 74 38 6.0 12.0 0.00 0.01 0.00 46 1010.2
20180715143935 74 43 9.0 13.0 0.00 0.01 0.00 45 1010.2
20180715142431 73 67 5.0 12.0 0.00 0.01 0.00 48 1010.2
20180715140924 73 71 4.0 11.0 0.00 0.01 0.00 48 1010.1
20180715135421 72 76 4.0 9.0 0.00 0.01 0.00 48 1010.1
20180715133917 71 77 6.0 9.0 0.00 0.01 0.00 48 1010.2
20180715132412 69 84 5.0 10.0 0.00 0.01 0.00 50 1010.0
20180715130855 67 88 4.0 9.0 0.00 0.01 0.00 51 1010.0
20180715125450 64 88 4.0 8.0 0.00 0.01 0.00 56 1009.9
20180715123950 62 88 0.0 7.0 0.00 0.01 0.00 58 1009.9
20180715122443 62 88 0.0 2.0 0.00 0.01 0.00 57 1009.9
20180715120904 62 88 0.0 3.0 0.00 0.01 0.00 58 1010.0
20180715115439 62 88 0.0 4.0 0.00 0.01 0.00 59 1009.9
20180715113841 62 88 0.0 2.0 0.00 0.01 0.00 57 1009.8
20180715112347 63 88 0.0 4.0 0.00 0.01 0.00 56 1009.8
20180715110932 64 88 1.0 3.0 0.00 0.01 0.00 55 1009.6
20180715105432 64 88 2.0 6.0 0.00 0.01 0.00 55 1009.6
20180715103929 63 88 2.0 6.0 0.00 0.01 0.00 56 1009.6
20180715102435 63 88 2.0 4.0 0.00 0.01 0.00 57 1009.6
20180715100935 63 88 0.0 0.0 0.00 0.01 0.00 57 1009.4
20180715095331 63 88 0.0 3.0 0.00 0.01 0.00 57 1009.4
20180715093932 63 88 2.0 7.0 0.00 0.01 0.00 56 1009.4
20180715092425 63 88 1.0 4.0 0.00 0.01 0.00 56 1009.5
20180715090923 64 88 1.0 7.0 0.00 0.01 0.00 55 1009.4
20180715085424 64 88 3.0 7.0 0.00 0.01 0.00 56 1009.3
20180715083857 64 88 3.0 6.0 0.00 0.01 0.00 55 1009.3
20180715082323 63 88 0.0 0.0 0.00 0.01 0.00 55 1009.3
20180715080840 64 88 0.0 2.0 0.00 0.01 0.00 55 1009.3
20180715075414 65 88 0.0 6.0 0.00 0.01 0.00 53 1009.3
20180715073819 66 88 0.0 4.0 0.00 0.01 0.00 51 1009.3
20180715072441 66 88 4.0 7.0 0.00 0.01 0.00 52 1009.3
20180715070911 65 88 2.0 4.0 0.00 0.01 0.00 52 1009.3
20180715065420 66 88 0.0 2.0 0.00 0.01 0.00 51 1009.3
20180715063910 66 88 2.0 7.0 0.00 0.01 0.00 51 1009.4
20180715062347 66 88 3.0 6.0 0.00 0.01 0.00 52 1009.4
20180715060914 65 88 1.0 4.0 0.00 0.01 0.01 52 1009.6
20180715055443 65 88 0.0 0.0 0.00 0.01 0.01 52 1009.4
20180715053857 66 88 0.0 0.0 0.00 0.01 0.01 51 1009.2
20180715052358 67 88 0.0 4.0 0.00 0.01 0.01 49 1009.2
20180715050857 68 88 2.0 6.0 0.00 0.01 0.01 48 1009.1
20180715045349 69 88 0.0 6.0 0.00 0.01 0.01 47 1009.0
20180715043928 69 88 3.0 7.0 0.00 0.01 0.01 46 1009.1
20180715042250 70 88 1.0 4.0 0.00 0.01 0.01 45 1009.0
20180715040847 71 88 3.0 7.0 0.00 0.01 0.01 44 1008.8
20180715035409 71 88 5.0 9.0 0.00 0.01 0.01 43 1008.6
20180715033843 71 89 4.0 9.0 0.00 0.01 0.01 44 1008.5
20180715032348 71 89 5.0 9.0 0.00 0.01 0.01 44 1008.4
20180715030843 72 89 5.0 9.0 0.00 0.01 0.01 44 1008.2
20180715025344 71 89 5.0 8.0 0.00 0.01 0.01 44 1008.3
20180715023846 72 89 4.0 8.0 0.00 0.01 0.01 45 1008.2
20180715022351 72 89 4.0 7.0 0.00 0.01 0.01 45 1008.2
20180715020753 73 89 3.0 8.0 0.00 0.01 0.01 44 1008.1
20180715015256 74 89 4.0 8.0 0.00 0.01 0.01 44 1008.1
20180715013838 74 89 4.0 8.0 0.00 0.01 0.01 42 1007.9
20180715012247 75 89 3.0 8.0 0.00 0.01 0.01 43 1007.8
20180715010837 75 89 4.0 8.0 0.00 0.01 0.01 42 1007.7
20180715005339 76 89 4.0 8.0 0.00 0.01 0.01 42 1007.7
20180715003836 76 89 4.0 9.0 0.00 0.01 0.01 43 1007.8
20180715002349 77 91 6.0 9.0 0.00 0.01 0.01 42 1007.8
20180715000836 77 93 2.0 8.0 0.00 0.01 0.01 42 1007.8
20180714235338 77 93 3.0 7.0 0.00 0.01 0.01 45 1007.9
20180714233834 77 93 5.0 10.0 0.00 0.01 0.01 43 1007.7
20180714232332 77 109 5.0 10.0 0.00 0.01 0.01 46 1007.8
20180714230742 76 115 4.0 11.0 0.00 0.01 0.01 46 1007.9
20180714225330 76 129 3.0 10.0 0.00 0.01 0.01 45 1007.9
20180714223828 75 155 3.0 8.0 0.00 0.01 0.01 47 1008.0
20180714222329 75 161 4.0 6.0 0.00 0.01 0.01 45 1008.1
20180714220826 75 161 5.0 7.0 0.00 0.01 0.01 44 1008.0
20180714215328 75 161 4.0 6.0 0.00 0.01 0.01 46 1008.0
20180714213826 75 161 2.0 5.0 0.00 0.01 0.01 50 1008.1
20180714212324 75 161 2.0 5.0 0.00 0.01 0.01 55 1008.1
20180714210824 75 161 2.0 5.0 0.00 0.01 0.01 50 1008.3
20180714205323 75 161 1.0 6.0 0.00 0.01 0.01 50 1008.3
20180714203822 75 161 1.0 6.0 0.00 0.01 0.01 49 1008.3
20180714202324 75 161 2.0 6.0 0.00 0.01 0.01 54 1008.5
20180714200823 74 161 4.0 12.0 0.00 0.01 0.01 55 1008.6
20180714195322 74 188 1.0 3.0 0.00 0.01 0.01 53 1008.7
20180714193817 74 188 0.0 2.0 0.00 0.01 0.01 52 1008.7